Time;durP1;ratioP1;P1;durP2;ratioP2;P2;SDS_P1;SDS_P2;PMS_P1;PMS_P2;Temp;Humidity;BMP_temperature;BMP_pressure;BME280_temperature;BME280_humidity;BME280_pressure;Samples;Min_cycle;Max_cycle;Signal;HPM_P1;HPM_P2
2023/08/10 00:00:16;;;;;;;6.13;2.75;;;17.00;73.30;;;;;;5045811;28;20455;-64
2023/08/10 00:02:42;;;;;;;8.15;3.15;;;17.00;73.30;;;;;;5040722;28;20025;-64
2023/08/10 00:05:09;;;;;;;10.60;3.25;;;17.00;73.30;;;;;;5046875;28;20101;-65
2023/08/10 00:07:36;;;;;;;7.80;3.10;;;17.00;73.30;;;;;;5045104;28;20032;-64
2023/08/10 00:10:03;;;;;;;8.45;2.88;;;17.00;73.30;;;;;;5053613;28;20021;-64
2023/08/10 00:12:29;;;;;;;6.68;3.05;;;17.10;73.50;;;;;;5047630;28;20028;-64
2023/08/10 00:14:55;;;;;;;6.40;2.70;;;17.10;73.50;;;;;;5028368;28;20361;-64
2023/08/10 00:17:21;;;;;;;7.57;3.00;;;17.10;73.50;;;;;;5047155;28;20142;-64
2023/08/10 00:19:47;;;;;;;8.68;2.80;;;17.10;73.50;;;;;;5044801;28;20024;-65
2023/08/10 00:22:13;;;;;;;9.30;2.78;;;17.10;73.60;;;;;;5052260;28;20021;-64
2023/08/10 00:24:39;;;;;;;6.50;2.55;;;17.10;73.60;;;;;;5052500;28;20072;-65
2023/08/10 00:27:06;;;;;;;7.57;2.50;;;17.10;73.60;;;;;;5046992;28;20068;-64
2023/08/10 00:29:32;;;;;;;8.30;2.80;;;17.10;73.70;;;;;;5052587;28;20040;-65
2023/08/10 00:31:59;;;;;;;5.53;2.10;;;17.10;73.70;;;;;;5047345;28;20056;-65
2023/08/10 00:34:24;;;;;;;7.28;2.45;;;17.10;73.70;;;;;;5053073;28;20112;-65
2023/08/10 00:36:50;;;;;;;5.80;2.47;;;17.10;73.60;;;;;;5041976;28;20493;-64
2023/08/10 00:39:17;;;;;;;5.20;2.30;;;17.10;73.60;;;;;;5045611;28;20049;-65
2023/08/10 00:41:44;;;;;;;5.80;2.05;;;17.10;73.50;;;;;;5033169;28;20021;-65
2023/08/10 00:44:09;;;;;;;7.40;2.30;;;17.10;73.50;;;;;;5049622;28;20484;-65
2023/08/10 00:46:36;;;;;;;6.93;2.25;;;17.10;73.50;;;;;;5047636;28;20026;-65
2023/08/10 00:49:04;;;;;;;7.82;2.40;;;17.10;73.60;;;;;;5070021;28;20028;-64
2023/08/10 00:51:30;;;;;;;7.95;2.17;;;17.10;73.60;;;;;;5053438;28;20033;-64
2023/08/10 00:53:56;;;;;;;6.90;2.00;;;17.10;73.60;;;;;;5054335;28;20060;-65
2023/08/10 00:56:23;;;;;;;5.63;2.03;;;17.10;74.30;;;;;;5042387;28;20024;-64
2023/08/10 00:58:50;;;;;;;6.28;2.15;;;17.10;73.70;;;;;;5054534;28;20319;-64
2023/08/10 01:01:16;;;;;;;5.20;1.92;;;17.10;73.70;;;;;;5056233;28;20029;-64
2023/08/10 01:03:42;;;;;;;7.85;2.50;;;17.10;73.70;;;;;;5045596;28;20393;-64
2023/08/10 01:06:34;;;;;;;7.75;2.47;;;17.10;73.70;;;;;;5053827;28;20033;-65
2023/08/10 01:09:17;;;;;;;6.38;2.13;;;17.20;73.80;;;;;;5053690;28;20552;-64
2023/08/10 01:12:02;;;;;;;5.45;1.80;;;17.10;73.80;;;;;;5053976;28;20151;-64
2023/08/10 01:15:06;;;;;;;4.35;1.92;;;17.10;73.70;;;;;;5043474;28;20029;-64
2023/08/10 01:17:48;;;;;;;4.72;2.05;;;17.10;73.70;;;;;;5008075;28;20068;-65
2023/08/10 01:20:14;;;;;;;6.78;2.42;;;17.10;73.80;;;;;;5054820;28;20029;-64
2023/08/10 01:23:04;;;;;;;11.02;2.50;;;17.10;73.80;;;;;;5054829;28;20032;-65
2023/08/10 01:25:30;;;;;;;7.22;2.03;;;17.10;73.80;;;;;;5036512;28;20037;-65
2023/08/10 01:27:56;;;;;;;6.63;1.98;;;17.10;73.80;;;;;;5055675;28;20035;-65
2023/08/10 01:30:22;;;;;;;7.82;2.72;;;17.10;73.70;;;;;;5054613;28;20424;-65
2023/08/10 01:32:51;;;;;;;5.55;1.95;;;17.10;73.70;;;;;;5054329;28;20033;-64
2023/08/10 01:35:17;;;;;;;5.25;1.80;;;17.10;73.80;;;;;;5043092;28;20033;-65
2023/08/10 01:37:43;;;;;;;4.50;2.08;;;17.10;73.80;;;;;;5051613;28;20123;-65
2023/08/10 01:40:13;;;;;;;5.13;1.90;;;17.10;73.70;;;;;;5037991;28;20080;-65
2023/08/10 01:42:44;;;;;;;6.45;1.70;;;17.10;73.70;;;;;;5052077;28;20024;-65
2023/08/10 01:45:10;;;;;;;4.85;1.73;;;17.10;73.60;;;;;;5055208;28;20037;-65
2023/08/10 01:47:49;;;;;;;7.75;2.20;;;17.10;73.60;;;;;;5045161;28;20029;-65
2023/08/10 01:50:17;;;;;;;6.75;2.05;;;17.10;73.60;;;;;;5054315;28;20539;-65
2023/08/10 01:52:50;;;;;;;5.93;2.17;;;17.10;73.60;;;;;;5053311;28;20017;-65
2023/08/10 01:55:18;;;;;;;5.68;2.00;;;17.10;73.70;;;;;;5040662;28;20051;-65
2023/08/10 01:57:44;;;;;;;7.93;2.20;;;17.10;73.70;;;;;;5053576;28;20028;-65
2023/08/10 02:00:12;;;;;;;8.13;2.53;;;17.10;73.70;;;;;;5038075;28;20037;-65
2023/08/10 02:02:46;;;;;;;6.88;2.30;;;17.10;73.70;;;;;;5051537;28;20071;-64
2023/08/10 02:05:13;;;;;;;5.78;2.28;;;17.10;73.70;;;;;;5053157;28;20025;-65
2023/08/10 02:07:41;;;;;;;5.50;2.20;;;17.10;73.80;;;;;;5053671;28;20428;-64
2023/08/10 02:10:10;;;;;;;6.57;2.03;;;17.00;73.80;;;;;;5043605;28;20025;-64
2023/08/10 02:12:36;;;;;;;6.80;2.40;;;17.00;73.80;;;;;;5045491;28;20025;-64
2023/08/10 02:15:03;;;;;;;5.53;2.13;;;17.00;73.90;;;;;;5052497;28;20028;-64
2023/08/10 02:17:35;;;;;;;6.60;2.13;;;17.00;73.90;;;;;;5047827;28;20029;-64
2023/08/10 02:20:12;;;;;;;7.18;2.50;;;17.00;74.00;;;;;;5043406;28;20040;-64
2023/08/10 02:22:46;;;;;;;6.18;1.95;;;17.00;74.00;;;;;;5052101;28;20044;-64
2023/08/10 02:25:12;;;;;;;6.82;2.20;;;17.00;73.90;;;;;;5039585;28;20132;-64
2023/08/10 02:27:39;;;;;;;6.20;2.05;;;17.00;74.00;;;;;;5048204;28;20028;-64
2023/08/10 02:30:06;;;;;;;5.45;2.40;;;17.00;73.90;;;;;;5051580;28;20021;-64
2023/08/10 02:32:32;;;;;;;5.72;1.95;;;17.00;73.90;;;;;;5053203;28;20029;-65
2023/08/10 02:34:58;;;;;;;8.38;2.50;;;16.90;74.00;;;;;;5051777;28;20123;-64
2023/08/10 02:37:24;;;;;;;5.80;2.20;;;16.90;74.10;;;;;;5051351;28;20126;-64
2023/08/10 02:39:50;;;;;;;6.70;2.22;;;16.90;74.20;;;;;;5049279;28;20117;-64
2023/08/10 02:42:16;;;;;;;8.77;2.00;;;16.90;74.30;;;;;;5053477;28;20040;-64
2023/08/10 02:44:43;;;;;;;8.43;2.10;;;16.90;74.50;;;;;;5046599;28;20057;-64
2023/08/10 02:47:09;;;;;;;6.10;2.05;;;16.90;74.60;;;;;;5040677;28;20408;-65
2023/08/10 02:49:34;;;;;;;6.03;2.60;;;16.80;74.70;;;;;;5053110;28;20025;-64
2023/08/10 02:52:00;;;;;;;5.72;2.03;;;16.80;74.80;;;;;;5053956;28;20036;-65
2023/08/10 02:54:26;;;;;;;6.55;2.15;;;16.80;75.60;;;;;;5052636;28;20339;-64
2023/08/10 02:56:52;;;;;;;5.70;2.30;;;16.80;75.10;;;;;;5048380;28;20320;-64
2023/08/10 02:59:17;;;;;;;6.80;2.30;;;16.80;75.10;;;;;;5037037;28;20115;-64
2023/08/10 03:01:45;;;;;;;6.03;2.60;;;16.80;75.20;;;;;;5053472;28;20021;-64
2023/08/10 03:04:12;;;;;;;7.10;2.25;;;16.80;75.40;;;;;;5053014;28;20128;-64
2023/08/10 03:06:39;;;;;;;4.50;1.83;;;16.80;75.50;;;;;;5051380;28;20063;-64
2023/08/10 03:09:06;;;;;;;6.18;2.30;;;16.80;75.70;;;;;;5048057;28;20090;-65
2023/08/10 03:11:32;;;;;;;5.10;2.15;;;16.80;75.80;;;;;;5045526;28;20112;-64
2023/08/10 03:13:59;;;;;;;5.55;2.28;;;16.80;75.90;;;;;;5053207;28;20442;-64
2023/08/10 03:16:26;;;;;;;7.72;2.55;;;16.70;75.90;;;;;;5050163;28;20044;-64
2023/08/10 03:18:52;;;;;;;6.97;2.10;;;16.80;76.00;;;;;;5053512;28;20465;-64
2023/08/10 03:21:18;;;;;;;6.57;2.08;;;16.80;76.00;;;;;;5044649;28;20025;-65
2023/08/10 03:23:44;;;;;;;6.38;2.22;;;16.80;76.10;;;;;;5048379;28;20127;-65
2023/08/10 03:26:10;;;;;;;7.53;2.25;;;16.80;76.20;;;;;;5066620;28;20083;-64
2023/08/10 03:28:36;;;;;;;7.80;2.90;;;16.80;76.20;;;;;;5031474;28;20454;-64
2023/08/10 03:31:03;;;;;;;6.93;3.08;;;16.80;76.30;;;;;;5051831;28;20057;-64
2023/08/10 03:33:29;;;;;;;6.93;2.95;;;16.80;76.30;;;;;;5053085;28;20414;-64
2023/08/10 03:35:55;;;;;;;6.25;3.00;;;16.80;76.40;;;;;;5044192;28;20028;-64
2023/08/10 03:38:22;;;;;;;7.35;2.55;;;16.80;76.40;;;;;;5050815;28;20017;-64
2023/08/10 03:40:48;;;;;;;6.40;2.38;;;16.80;76.40;;;;;;5035693;28;20025;-64
2023/08/10 03:43:14;;;;;;;6.00;2.60;;;16.80;76.40;;;;;;5053138;28;20063;-64
2023/08/10 03:45:40;;;;;;;6.10;2.38;;;16.80;76.50;;;;;;5045335;28;20158;-64
2023/08/10 03:48:06;;;;;;;6.13;2.22;;;16.80;76.70;;;;;;5045256;28;20053;-64
2023/08/10 03:50:32;;;;;;;6.25;2.40;;;16.80;76.70;;;;;;5042557;28;20462;-64
2023/08/10 03:52:58;;;;;;;6.35;2.50;;;16.80;76.70;;;;;;5031425;28;20328;-64
2023/08/10 03:55:24;;;;;;;8.18;2.50;;;16.80;76.80;;;;;;5049167;28;20044;-64
2023/08/10 03:57:50;;;;;;;6.75;2.63;;;16.80;76.80;;;;;;5050793;28;20083;-64
2023/08/10 04:00:16;;;;;;;6.55;2.78;;;16.80;76.80;;;;;;5033178;28;20362;-64
2023/08/10 04:02:43;;;;;;;6.32;2.35;;;16.80;76.80;;;;;;5039216;28;20037;-64
2023/08/10 04:05:10;;;;;;;7.30;2.45;;;16.80;76.80;;;;;;5051903;28;20037;-64
2023/08/10 04:07:37;;;;;;;6.22;2.33;;;16.80;76.80;;;;;;5038230;28;20116;-64
2023/08/10 04:10:12;;;;;;;6.35;2.00;;;16.90;76.80;;;;;;5051296;28;20013;-64
2023/08/10 04:12:38;;;;;;;5.28;1.90;;;16.80;76.60;;;;;;5020524;28;20021;-64
2023/08/10 04:15:08;;;;;;;4.72;2.30;;;16.90;76.60;;;;;;5067493;28;20037;-65
2023/08/10 04:17:35;;;;;;;6.47;2.22;;;16.90;76.50;;;;;;5036457;28;20026;-65
2023/08/10 04:20:01;;;;;;;5.72;2.35;;;16.90;76.50;;;;;;5038480;28;20041;-64
2023/08/10 04:22:27;;;;;;;8.77;2.95;;;16.90;76.50;;;;;;5052470;28;20037;-65
2023/08/10 04:24:53;;;;;;;6.88;2.65;;;16.90;76.60;;;;;;5053656;28;20055;-65
2023/08/10 04:27:18;;;;;;;6.95;3.00;;;16.90;76.50;;;;;;5052445;28;20120;-64
2023/08/10 04:29:45;;;;;;;7.68;2.47;;;16.90;76.60;;;;;;5042800;28;20065;-64
2023/08/10 04:32:14;;;;;;;7.78;3.00;;;16.90;76.50;;;;;;5056021;28;20033;-64
2023/08/10 04:34:40;;;;;;;9.52;3.05;;;16.90;77.00;;;;;;5045883;28;20022;-65
2023/08/10 04:37:06;;;;;;;7.22;3.22;;;16.90;76.40;;;;;;5052596;28;20457;-65
2023/08/10 04:39:32;;;;;;;8.00;2.83;;;16.90;76.20;;;;;;5056077;28;20068;-65
2023/08/10 04:41:59;;;;;;;8.13;3.20;;;16.90;76.20;;;;;;5027914;28;20438;-64
2023/08/10 04:44:25;;;;;;;8.25;3.60;;;16.90;76.20;;;;;;5046872;28;20358;-65
2023/08/10 04:46:51;;;;;;;6.35;2.83;;;16.90;76.30;;;;;;5047224;28;20031;-67
2023/08/10 04:49:16;;;;;;;7.35;3.50;;;17.00;76.30;;;;;;5056878;28;20044;-65
2023/08/10 04:51:43;;;;;;;7.85;3.75;;;17.00;76.30;;;;;;5055882;28;20102;-64
2023/08/10 04:54:09;;;;;;;7.85;3.60;;;17.00;76.30;;;;;;5047445;28;20024;-64
2023/08/10 04:56:36;;;;;;;8.32;3.55;;;17.00;76.20;;;;;;5055184;28;20024;-64
2023/08/10 04:59:02;;;;;;;8.75;3.53;;;17.00;76.30;;;;;;5055886;28;20120;-64
2023/08/10 05:01:28;;;;;;;6.78;3.10;;;17.00;76.30;;;;;;5052778;28;20366;-64
2023/08/10 05:03:54;;;;;;;6.53;3.40;;;17.00;76.40;;;;;;5048928;28;20413;-64
2023/08/10 05:06:20;;;;;;;7.15;3.22;;;17.10;76.40;;;;;;5047962;28;20060;-64
2023/08/10 05:08:46;;;;;;;7.47;3.60;;;17.10;76.50;;;;;;5055361;28;20118;-64
2023/08/10 05:11:12;;;;;;;6.65;3.15;;;17.10;76.50;;;;;;5054834;28;20449;-63
2023/08/10 05:13:38;;;;;;;7.60;3.30;;;17.10;76.40;;;;;;5054388;28;20025;-64
2023/08/10 05:16:04;;;;;;;8.55;3.60;;;17.20;77.00;;;;;;5055065;28;20374;-64
2023/08/10 05:18:30;;;;;;;7.45;3.00;;;17.20;76.30;;;;;;5045406;28;20037;-65
2023/08/10 05:21:02;;;;;;;7.22;2.85;;;17.20;76.20;;;;;;5054795;28;20031;-65
2023/08/10 05:23:28;;;;;;;8.05;3.50;;;17.30;76.20;;;;;;5056794;28;20036;-65
2023/08/10 05:25:54;;;;;;;9.27;3.47;;;17.30;76.10;;;;;;5050993;28;20103;-65
2023/08/10 05:28:19;;;;;;;9.27;3.60;;;17.40;76.00;;;;;;5052147;28;20548;-64
2023/08/10 05:30:45;;;;;;;7.43;3.58;;;17.40;76.00;;;;;;5057863;28;20025;-65
2023/08/10 05:33:11;;;;;;;7.18;3.15;;;17.40;75.90;;;;;;5054359;28;20426;-65
2023/08/10 05:35:37;;;;;;;7.63;3.28;;;17.40;75.70;;;;;;5042521;28;20040;-65
2023/08/10 05:38:03;;;;;;;6.53;3.40;;;17.50;75.60;;;;;;5034323;28;20037;-65
2023/08/10 05:40:29;;;;;;;8.25;3.90;;;17.60;75.40;;;;;;5055614;28;20044;-65
2023/08/10 05:42:55;;;;;;;7.15;3.05;;;17.60;75.30;;;;;;5056596;28;20358;-65
2023/08/10 05:45:22;;;;;;;6.72;2.97;;;17.60;75.10;;;;;;5054726;28;20024;-65
2023/08/10 05:47:50;;;;;;;8.50;3.42;;;17.70;74.80;;;;;;5046125;28;20071;-65
2023/08/10 05:50:16;;;;;;;7.55;3.13;;;17.80;74.50;;;;;;5056061;28;20040;-65
2023/08/10 05:52:43;;;;;;;7.80;4.03;;;17.80;74.40;;;;;;5051331;28;20021;-65
2023/08/10 05:55:10;;;;;;;8.10;3.47;;;17.90;74.10;;;;;;5051164;28;20060;-65
2023/08/10 05:57:36;;;;;;;9.35;3.60;;;17.90;73.90;;;;;;5050749;28;20036;-65
2023/08/10 06:00:02;;;;;;;10.38;3.60;;;17.90;73.80;;;;;;5049355;28;20021;-66
2023/08/10 06:02:38;;;;;;;7.22;3.15;;;18.00;73.60;;;;;;5052226;28;20487;-66
2023/08/10 06:05:06;;;;;;;9.02;3.60;;;18.10;73.30;;;;;;5050802;28;20441;-67
2023/08/10 06:07:33;;;;;;;8.65;3.42;;;18.20;73.00;;;;;;5045930;28;20069;-67
2023/08/10 06:09:59;;;;;;;8.27;2.78;;;18.20;72.70;;;;;;5043467;28;20044;-66
2023/08/10 06:12:25;;;;;;;6.97;3.08;;;18.30;72.60;;;;;;5045696;28;20029;-66
2023/08/10 06:14:50;;;;;;;8.13;3.45;;;18.40;72.30;;;;;;5047273;28;20025;-66
2023/08/10 06:17:16;;;;;;;9.25;3.88;;;18.40;72.10;;;;;;5050018;28;20029;-66
2023/08/10 06:19:51;;;;;;;7.32;3.30;;;18.40;72.00;;;;;;5037857;28;20028;-69
2023/08/10 06:22:17;;;;;;;8.13;3.88;;;18.50;71.80;;;;;;5039725;28;20094;-67
2023/08/10 06:24:43;;;;;;;8.27;3.53;;;18.50;71.60;;;;;;5046603;28;20048;-69
2023/08/10 06:27:09;;;;;;;8.00;3.67;;;18.60;71.30;;;;;;5045045;28;20025;-68
2023/08/10 06:29:35;;;;;;;9.13;3.55;;;18.70;71.00;;;;;;5038976;28;20040;-67
2023/08/10 06:32:07;;;;;;;10.30;3.55;;;18.80;70.80;;;;;;5041028;28;20355;-68
2023/08/10 06:34:34;;;;;;;9.15;3.60;;;18.90;70.60;;;;;;5043393;28;20358;-67
2023/08/10 06:37:00;;;;;;;7.43;3.42;;;19.00;70.50;;;;;;5048465;28;20024;-68
2023/08/10 06:39:27;;;;;;;7.78;3.03;;;19.10;70.20;;;;;;5041305;28;20527;-67
2023/08/10 06:41:53;;;;;;;7.25;3.20;;;19.20;69.80;;;;;;5045949;28;20029;-66
2023/08/10 06:44:20;;;;;;;7.25;3.05;;;19.30;69.40;;;;;;5044464;28;20144;-67
2023/08/10 06:46:46;;;;;;;7.45;2.70;;;19.40;68.90;;;;;;5046797;28;20489;-67
2023/08/10 06:49:12;;;;;;;7.22;3.17;;;19.50;68.60;;;;;;5048009;28;20095;-67
2023/08/10 06:51:37;;;;;;;9.57;3.38;;;19.60;68.30;;;;;;5041397;28;20037;-67
2023/08/10 06:54:03;;;;;;;6.38;2.83;;;19.70;68.00;;;;;;5034066;28;20041;-68
2023/08/10 06:56:29;;;;;;;8.93;3.40;;;19.80;67.90;;;;;;5042823;28;20365;-69
2023/08/10 06:58:55;;;;;;;8.38;3.33;;;20.00;67.40;;;;;;5041983;28;20127;-68
2023/08/10 07:01:21;;;;;;;9.10;3.40;;;20.10;66.90;;;;;;5042879;28;20145;-68
2023/08/10 07:03:46;;;;;;;9.27;3.45;;;20.30;66.40;;;;;;5040087;28;20029;-68
2023/08/10 07:06:12;;;;;;;7.13;2.60;;;20.40;65.90;;;;;;5049753;28;20025;-67
2023/08/10 07:08:39;;;;;;;8.57;3.30;;;20.50;65.70;;;;;;5023501;28;20400;-68
2023/08/10 07:11:05;;;;;;;7.68;3.60;;;20.60;65.30;;;;;;5039811;28;20454;-68
2023/08/10 07:13:31;;;;;;;6.10;3.10;;;20.70;64.80;;;;;;5045524;28;20036;-70
2023/08/10 07:15:57;;;;;;;7.70;3.33;;;20.80;64.50;;;;;;5045789;28;20025;-67
2023/08/10 07:18:23;;;;;;;5.85;3.15;;;21.00;64.50;;;;;;5043413;28;20443;-68
2023/08/10 07:20:49;;;;;;;6.90;2.90;;;21.10;64.20;;;;;;5047126;28;20025;-65
2023/08/10 07:23:17;;;;;;;6.65;2.85;;;21.20;63.70;;;;;;5020148;28;20102;-68
2023/08/10 07:25:45;;;;;;;6.57;2.83;;;21.30;63.10;;;;;;5048638;28;20503;-67
2023/08/10 07:28:11;;;;;;;8.25;3.03;;;21.40;62.60;;;;;;5048476;28;20090;-68
2023/08/10 07:30:37;;;;;;;8.20;2.60;;;21.50;62.30;;;;;;5033848;28;20636;-67
2023/08/10 07:33:03;;;;;;;5.60;2.58;;;21.70;61.60;;;;;;5043426;28;20112;-67
2023/08/10 07:35:29;;;;;;;6.35;2.65;;;21.80;61.00;;;;;;5046871;28;20021;-68
2023/08/10 07:37:55;;;;;;;9.15;2.85;;;22.00;61.20;;;;;;5044701;28;20032;-67
2023/08/10 07:40:21;;;;;;;5.07;1.83;;;22.00;60.70;;;;;;5037336;28;20033;-67
2023/08/10 07:42:47;;;;;;;6.00;2.10;;;22.20;60.10;;;;;;5043205;28;20033;-66
2023/08/10 07:45:12;;;;;;;6.63;1.95;;;22.20;59.70;;;;;;5046891;28;20025;-67
2023/08/10 07:47:39;;;;;;;6.40;2.35;;;22.30;59.00;;;;;;5043928;28;20029;-67
2023/08/10 07:50:05;;;;;;;6.03;1.90;;;22.40;58.20;;;;;;5048974;28;20385;-67
2023/08/10 07:52:31;;;;;;;4.88;1.70;;;22.50;58.00;;;;;;5047237;28;20027;-68
2023/08/10 07:54:57;;;;;;;4.63;1.50;;;22.60;57.20;;;;;;5040478;28;20466;-68
2023/08/10 07:57:23;;;;;;;5.38;2.10;;;22.70;56.70;;;;;;5041476;28;20359;-67
2023/08/10 07:59:49;;;;;;;5.03;1.90;;;22.80;56.40;;;;;;5038066;28;20082;-67
2023/08/10 08:02:15;;;;;;;3.78;1.77;;;22.90;56.00;;;;;;5050754;28;20338;-67
2023/08/10 08:04:40;;;;;;;7.07;1.60;;;23.00;55.80;;;;;;5055204;28;20040;-67
2023/08/10 08:07:06;;;;;;;3.63;1.70;;;23.00;55.40;;;;;;5055974;28;20430;-67
2023/08/10 08:09:32;;;;;;;4.78;1.70;;;23.10;55.40;;;;;;5056498;28;20029;-67
2023/08/10 08:11:58;;;;;;;4.93;1.70;;;23.20;55.40;;;;;;5055406;28;20029;-68
2023/08/10 08:14:23;;;;;;;3.70;1.60;;;23.30;55.30;;;;;;5051362;28;20025;-68
2023/08/10 08:16:49;;;;;;;6.10;2.03;;;23.40;55.00;;;;;;5046990;28;20025;-68
2023/08/10 08:19:15;;;;;;;4.95;1.83;;;23.50;54.90;;;;;;5054033;28;20075;-68
2023/08/10 08:21:41;;;;;;;5.03;1.83;;;23.60;54.80;;;;;;5057430;28;20028;-68
2023/08/10 08:24:07;;;;;;;4.00;1.50;;;23.70;54.40;;;;;;5040141;28;20458;-68
2023/08/10 08:26:33;;;;;;;5.93;1.85;;;23.80;54.00;;;;;;5041317;28;20033;-68
2023/08/10 08:28:59;;;;;;;6.05;1.58;;;23.90;53.20;;;;;;5041578;28;20051;-68
2023/08/10 08:31:26;;;;;;;5.40;1.80;;;23.90;52.80;;;;;;5054867;28;20017;-68
2023/08/10 08:33:52;;;;;;;5.20;1.52;;;23.90;52.70;;;;;;5058080;28;20017;-68
2023/08/10 08:36:18;;;;;;;3.67;1.50;;;24.00;52.40;;;;;;5052514;28;20025;-68
2023/08/10 08:38:44;;;;;;;5.30;1.73;;;24.00;52.30;;;;;;5053762;28;20036;-68
2023/08/10 08:41:10;;;;;;;6.53;1.73;;;24.10;52.10;;;;;;5057942;28;20044;-68
2023/08/10 08:43:37;;;;;;;3.08;1.45;;;24.20;51.80;;;;;;5055906;28;20040;-67
2023/08/10 08:46:04;;;;;;;5.78;1.60;;;24.30;51.90;;;;;;5054406;28;20114;-68
2023/08/10 08:48:31;;;;;;;5.88;1.55;;;24.40;51.70;;;;;;5043299;28;20397;-67
2023/08/10 08:50:57;;;;;;;5.00;1.80;;;24.50;51.70;;;;;;5048233;28;20020;-67
2023/08/10 08:53:24;;;;;;;3.67;1.40;;;24.50;51.50;;;;;;5066364;28;20100;-67
2023/08/10 08:55:50;;;;;;;4.68;1.67;;;24.60;51.30;;;;;;5053159;28;20033;-67
2023/08/10 08:58:17;;;;;;;3.80;1.33;;;24.70;50.80;;;;;;5048681;28;20126;-67
2023/08/10 09:01:03;;;;;;;4.53;1.45;;;24.70;50.40;;;;;;5046118;28;20032;-67
2023/08/10 09:03:29;;;;;;;4.13;1.50;;;24.70;49.70;;;;;;5044754;28;20021;-68
2023/08/10 09:05:55;;;;;;;3.50;1.30;;;24.80;49.70;;;;;;5048358;28;20033;-67
2023/08/10 09:08:21;;;;;;;4.85;1.38;;;24.70;49.70;;;;;;5044500;28;20093;-68
2023/08/10 09:10:48;;;;;;;3.60;1.77;;;24.50;50.10;;;;;;5048696;28;20045;-67
2023/08/10 09:13:23;;;;;;;4.30;1.30;;;24.40;49.70;;;;;;5050988;28;20083;-67
2023/08/10 09:16:08;;;;;;;3.78;1.10;;;24.30;49.80;;;;;;5050231;28;20017;-67
2023/08/10 09:18:36;;;;;;;3.78;1.27;;;24.20;49.60;;;;;;5046236;28;20068;-68
2023/08/10 09:21:10;;;;;;;3.70;1.50;;;24.30;49.90;;;;;;5049013;28;20032;-67
2023/08/10 09:23:36;;;;;;;5.28;1.35;;;24.50;49.70;;;;;;5049698;28;20030;-68
2023/08/10 09:26:09;;;;;;;2.88;1.15;;;24.50;49.90;;;;;;5041079;28;20055;-68
2023/08/10 09:28:39;;;;;;;5.03;1.60;;;24.70;49.80;;;;;;5045663;28;20039;-66
2023/08/10 09:31:07;;;;;;;4.45;1.65;;;24.60;49.80;;;;;;5047776;28;20033;-67
2023/08/10 09:33:35;;;;;;;4.15;1.48;;;24.40;50.10;;;;;;5042427;28;20067;-67
2023/08/10 09:36:02;;;;;;;4.85;1.58;;;24.30;50.30;;;;;;5053526;28;20048;-67
2023/08/10 09:38:28;;;;;;;3.60;1.50;;;24.40;50.10;;;;;;5052020;28;20374;-67
2023/08/10 09:41:13;;;;;;;3.58;1.40;;;24.60;50.20;;;;;;5054807;28;20025;-67
2023/08/10 09:43:41;;;;;;;4.13;1.50;;;24.80;49.40;;;;;;5055357;28;20025;-67
2023/08/10 09:46:09;;;;;;;4.13;1.58;;;24.80;49.70;;;;;;5048937;28;20030;-67
2023/08/10 09:48:36;;;;;;;5.68;1.60;;;24.60;50.00;;;;;;5049479;28;20039;-67
2023/08/10 09:51:04;;;;;;;3.55;1.52;;;24.40;50.50;;;;;;5051470;28;20342;-68
2023/08/10 09:53:31;;;;;;;4.25;1.52;;;24.30;50.70;;;;;;5055882;28;20120;-68
2023/08/10 09:55:57;;;;;;;5.05;1.60;;;24.20;51.00;;;;;;5056055;28;20025;-69
2023/08/10 09:58:24;;;;;;;4.28;1.80;;;24.00;51.30;;;;;;5056672;28;20036;-68
2023/08/10 10:00:50;;;;;;;5.75;1.48;;;24.00;51.40;;;;;;5054517;28;20027;-69
2023/08/10 10:03:31;;;;;;;3.42;1.40;;;24.30;51.20;;;;;;5053542;28;20393;-68
2023/08/10 10:05:57;;;;;;;3.83;1.40;;;24.60;50.70;;;;;;5055284;28;20028;-69
2023/08/10 10:08:28;;;;;;;3.42;1.60;;;24.90;50.60;;;;;;5054806;28;20163;-68
2023/08/10 10:10:56;;;;;;;;;;;25.10;50.10;;;;;;5056261;28;20029;-69
2023/08/10 10:13:22;;;;;;;3.17;1.15;;;25.30;50.10;;;;;;5055883;28;20360;-68
2023/08/10 10:15:48;;;;;;;3.05;1.50;;;25.20;50.20;;;;;;5053553;28;20116;-68
2023/08/10 10:18:14;;;;;;;4.50;1.83;;;25.20;50.20;;;;;;5049307;28;20017;-68
2023/08/10 10:20:43;;;;;;;4.00;1.55;;;25.20;50.10;;;;;;5045709;28;20361;-68
2023/08/10 10:23:18;;;;;;;5.72;2.40;;;25.20;50.30;;;;;;5024861;28;20071;-68
2023/08/10 10:26:01;;;;;;;5.43;1.80;;;25.10;49.80;;;;;;5046097;28;20041;-68
2023/08/10 10:28:30;;;;;;;5.53;1.90;;;24.80;50.30;;;;;;5044657;28;20052;-68
2023/08/10 10:30:59;;;;;;;4.88;2.00;;;24.60;51.00;;;;;;5055636;28;20021;-68
2023/08/10 10:33:25;;;;;;;5.20;1.77;;;24.60;51.30;;;;;;5056109;28;20029;-68
2023/08/10 10:36:14;;;;;;;4.18;1.40;;;24.80;51.20;;;;;;5054406;28;20057;-69
2023/08/10 10:38:47;;;;;;;5.20;2.03;;;25.20;51.20;;;;;;5055894;28;20029;-68
2023/08/10 10:41:30;;;;;;;5.85;2.00;;;25.40;50.70;;;;;;5056017;28;20396;-68
2023/08/10 10:43:59;;;;;;;4.72;2.10;;;25.40;50.40;;;;;;5037882;28;20035;-68
2023/08/10 10:46:31;;;;;;;5.07;2.40;;;25.40;50.50;;;;;;5049376;28;20033;-68
2023/08/10 10:49:04;;;;;;;4.30;2.00;;;25.30;50.50;;;;;;5054503;28;20029;-68
2023/08/10 10:51:29;;;;;;;6.28;2.38;;;25.20;50.60;;;;;;5055616;28;20064;-68
2023/08/10 10:53:55;;;;;;;4.82;1.92;;;25.30;50.40;;;;;;5053175;28;20447;-68
2023/08/10 10:56:24;;;;;;;4.18;1.90;;;25.50;50.30;;;;;;5052489;28;20327;-68
2023/08/10 10:58:50;;;;;;;3.92;1.83;;;25.60;50.10;;;;;;5037451;28;20410;-68
2023/08/10 11:01:22;;;;;;;5.10;2.10;;;25.70;50.00;;;;;;5055043;28;20029;-69
2023/08/10 11:03:55;;;;;;;4.78;1.88;;;25.80;50.00;;;;;;5055000;28;20127;-68
2023/08/10 11:06:24;;;;;;;4.72;1.70;;;26.00;50.50;;;;;;5053739;28;20397;-68
2023/08/10 11:08:51;;;;;;;4.18;1.90;;;26.10;49.70;;;;;;5037301;28;20311;-68
2023/08/10 11:11:23;;;;;;;3.78;1.55;;;26.10;49.50;;;;;;5054917;28;20036;-68
2023/08/10 11:13:49;;;;;;;3.58;1.60;;;26.10;49.30;;;;;;5054244;28;20017;-68
2023/08/10 11:16:16;;;;;;;3.78;1.50;;;26.00;49.50;;;;;;5054134;28;20071;-68
2023/08/10 11:18:47;;;;;;;4.35;1.63;;;25.90;49.50;;;;;;5052800;28;20025;-68
2023/08/10 11:21:14;;;;;;;4.30;1.75;;;25.90;49.20;;;;;;5054810;28;20029;-68
2023/08/10 11:23:40;;;;;;;4.72;2.00;;;26.00;49.20;;;;;;5054733;28;20132;-69
2023/08/10 11:26:06;;;;;;;3.92;1.40;;;26.00;49.20;;;;;;5053771;28;20047;-69
2023/08/10 11:28:32;;;;;;;4.90;2.10;;;26.00;49.20;;;;;;5052930;28;20020;-69
2023/08/10 11:31:05;;;;;;;4.60;1.77;;;25.90;49.20;;;;;;5054773;28;20122;-69
2023/08/10 11:33:31;;;;;;;4.25;1.90;;;26.00;48.90;;;;;;5053690;28;20021;-69
2023/08/10 11:35:58;;;;;;;5.40;1.75;;;26.10;49.00;;;;;;5053589;28;20037;-69
2023/08/10 11:38:25;;;;;;;5.65;2.13;;;26.10;49.10;;;;;;5051012;28;20116;-69
2023/08/10 11:40:55;;;;;;;4.55;1.83;;;26.20;48.80;;;;;;5053708;28;20465;-69
2023/08/10 11:43:25;;;;;;;4.47;1.83;;;26.30;48.70;;;;;;5053544;28;20029;-69
2023/08/10 11:45:53;;;;;;;4.78;2.03;;;26.20;48.60;;;;;;5053532;28;20044;-69
2023/08/10 11:48:19;;;;;;;3.95;1.67;;;26.30;48.30;;;;;;5052863;28;20115;-69
2023/08/10 11:50:45;;;;;;;4.65;1.98;;;26.30;48.30;;;;;;5054941;28;20021;-69
2023/08/10 11:53:11;;;;;;;4.25;1.80;;;26.40;48.50;;;;;;5054516;28;20106;-69
2023/08/10 11:55:45;;;;;;;4.60;2.20;;;26.50;48.50;;;;;;5053358;28;20045;-69
2023/08/10 11:58:13;;;;;;;4.88;2.00;;;26.60;48.60;;;;;;5053402;28;20480;-69
2023/08/10 12:00:43;;;;;;;5.05;2.22;;;26.50;48.50;;;;;;5050584;28;20033;-69
2023/08/10 12:03:16;;;;;;;4.88;2.33;;;26.20;48.80;;;;;;5042777;28;20057;-69
2023/08/10 12:05:53;;;;;;;4.30;1.92;;;26.00;49.20;;;;;;5053243;28;20454;-69
2023/08/10 12:08:24;;;;;;;6.05;2.38;;;26.00;49.40;;;;;;5053600;28;20033;-69
2023/08/10 12:11:04;;;;;;;5.38;2.30;;;26.00;49.40;;;;;;5046078;28;20029;-69
2023/08/10 12:13:31;;;;;;;4.45;1.83;;;26.00;49.60;;;;;;5036962;28;20047;-69
2023/08/10 12:15:59;;;;;;;4.70;2.13;;;26.10;49.50;;;;;;5054033;28;20025;-70
2023/08/10 12:18:25;;;;;;;5.40;1.98;;;26.10;49.20;;;;;;5054366;28;20021;-69
2023/08/10 12:20:52;;;;;;;4.13;1.80;;;26.10;49.30;;;;;;5054069;28;20339;-69
2023/08/10 12:23:20;;;;;;;4.70;2.10;;;26.00;49.40;;;;;;5045144;28;20033;-69
2023/08/10 12:25:48;;;;;;;4.85;2.10;;;26.00;49.30;;;;;;5053397;28;20056;-69
2023/08/10 12:28:16;;;;;;;5.30;1.70;;;26.00;49.00;;;;;;5054128;28;20053;-69
2023/08/10 12:30:44;;;;;;;5.45;1.75;;;25.90;49.10;;;;;;5053534;28;20064;-69
2023/08/10 12:33:11;;;;;;;4.53;2.00;;;25.80;49.10;;;;;;5051161;28;21209;-69
2023/08/10 12:35:37;;;;;;;3.75;1.80;;;25.60;49.40;;;;;;5052254;28;20036;-69
2023/08/10 12:38:05;;;;;;;3.58;1.67;;;25.40;49.80;;;;;;5052654;28;20450;-68
2023/08/10 12:40:31;;;;;;;5.50;2.17;;;25.30;49.80;;;;;;5047677;28;20047;-69
2023/08/10 12:42:59;;;;;;;5.40;1.80;;;25.30;49.80;;;;;;5050069;28;20725;-69
2023/08/10 12:45:25;;;;;;;4.68;1.90;;;25.40;50.00;;;;;;5050617;28;20150;-69
2023/08/10 12:47:52;;;;;;;3.95;1.70;;;25.40;50.20;;;;;;5044547;28;20071;-69
2023/08/10 12:50:18;;;;;;;3.65;1.65;;;25.40;50.40;;;;;;5037288;28;20030;-69